sensor_id;sensor_type;location;lat;lon;timestamp;P1;durP1;ratioP1;P2;durP2;ratioP2
21905;SDS011;11117;48.644;9.006;2023-04-24T00:01:26;2.43;;;1.20;;
21905;SDS011;11117;48.644;9.006;2023-04-24T00:03:52;2.40;;;1.03;;
21905;SDS011;11117;48.644;9.006;2023-04-24T00:06:17;1.83;;;1.13;;
21905;SDS011;11117;48.644;9.006;2023-04-24T00:08:43;2.40;;;1.20;;
21905;SDS011;11117;48.644;9.006;2023-04-24T00:11:09;1.30;;;1.00;;
21905;SDS011;11117;48.644;9.006;2023-04-24T00:13:34;2.23;;;1.10;;
21905;SDS011;11117;48.644;9.006;2023-04-24T00:16:00;3.50;;;1.30;;
21905;SDS011;11117;48.644;9.006;2023-04-24T00:18:26;2.83;;;1.20;;
21905;SDS011;11117;48.644;9.006;2023-04-24T00:20:51;3.57;;;1.20;;
21905;SDS011;11117;48.644;9.006;2023-04-24T00:23:17;3.37;;;1.00;;
21905;SDS011;11117;48.644;9.006;2023-04-24T00:25:42;2.80;;;1.27;;
21905;SDS011;11117;48.644;9.006;2023-04-24T00:28:08;2.27;;;1.07;;
21905;SDS011;11117;48.644;9.006;2023-04-24T00:30:34;2.73;;;1.30;;
21905;SDS011;11117;48.644;9.006;2023-04-24T00:32:59;1.37;;;1.03;;
21905;SDS011;11117;48.644;9.006;2023-04-24T00:35:25;2.90;;;1.20;;
21905;SDS011;11117;48.644;9.006;2023-04-24T00:37:50;1.67;;;0.90;;
21905;SDS011;11117;48.644;9.006;2023-04-24T00:40:16;1.90;;;0.87;;
21905;SDS011;11117;48.644;9.006;2023-04-24T00:42:41;2.10;;;1.03;;
21905;SDS011;11117;48.644;9.006;2023-04-24T00:45:08;2.13;;;0.90;;
21905;SDS011;11117;48.644;9.006;2023-04-24T00:47:34;1.03;;;0.70;;
21905;SDS011;11117;48.644;9.006;2023-04-24T00:50:01;5.37;;;1.20;;
21905;SDS011;11117;48.644;9.006;2023-04-24T00:52:27;1.67;;;1.10;;
21905;SDS011;11117;48.644;9.006;2023-04-24T00:54:53;2.27;;;0.90;;
21905;SDS011;11117;48.644;9.006;2023-04-24T00:57:18;3.50;;;0.90;;
21905;SDS011;11117;48.644;9.006;2023-04-24T00:59:44;1.93;;;1.00;;
21905;SDS011;11117;48.644;9.006;2023-04-24T01:02:11;1.53;;;0.80;;
21905;SDS011;11117;48.644;9.006;2023-04-24T01:04:37;1.13;;;0.80;;
21905;SDS011;11117;48.644;9.006;2023-04-24T01:07:03;0.90;;;0.80;;
21905;SDS011;11117;48.644;9.006;2023-04-24T01:09:29;1.33;;;1.10;;
21905;SDS011;11117;48.644;9.006;2023-04-24T01:11:54;1.83;;;0.93;;
21905;SDS011;11117;48.644;9.006;2023-04-24T01:14:20;1.80;;;0.80;;
21905;SDS011;11117;48.644;9.006;2023-04-24T01:16:45;1.30;;;0.93;;
21905;SDS011;11117;48.644;9.006;2023-04-24T01:19:11;1.87;;;0.70;;
21905;SDS011;11117;48.644;9.006;2023-04-24T01:21:38;1.63;;;0.90;;
21905;SDS011;11117;48.644;9.006;2023-04-24T01:24:05;2.50;;;0.90;;
21905;SDS011;11117;48.644;9.006;2023-04-24T01:26:31;1.47;;;0.93;;
21905;SDS011;11117;48.644;9.006;2023-04-24T01:28:57;1.57;;;0.83;;
21905;SDS011;11117;48.644;9.006;2023-04-24T01:31:22;3.60;;;1.20;;
21905;SDS011;11117;48.644;9.006;2023-04-24T01:33:49;1.43;;;1.10;;
21905;SDS011;11117;48.644;9.006;2023-04-24T01:36:15;1.73;;;0.60;;
21905;SDS011;11117;48.644;9.006;2023-04-24T01:38:41;6.07;;;1.00;;
21905;SDS011;11117;48.644;9.006;2023-04-24T01:41:07;2.00;;;0.90;;
21905;SDS011;11117;48.644;9.006;2023-04-24T01:43:33;1.97;;;0.80;;
21905;SDS011;11117;48.644;9.006;2023-04-24T01:45:58;1.97;;;1.00;;
21905;SDS011;11117;48.644;9.006;2023-04-24T01:48:24;2.53;;;0.90;;
21905;SDS011;11117;48.644;9.006;2023-04-24T01:50:49;3.97;;;0.90;;
21905;SDS011;11117;48.644;9.006;2023-04-24T01:53:15;2.53;;;1.00;;
21905;SDS011;11117;48.644;9.006;2023-04-24T01:55:41;4.67;;;1.10;;
21905;SDS011;11117;48.644;9.006;2023-04-24T01:58:06;2.83;;;1.10;;
21905;SDS011;11117;48.644;9.006;2023-04-24T02:00:32;2.10;;;1.17;;
21905;SDS011;11117;48.644;9.006;2023-04-24T02:02:58;1.30;;;0.93;;
21905;SDS011;11117;48.644;9.006;2023-04-24T02:05:24;3.07;;;0.80;;
21905;SDS011;11117;48.644;9.006;2023-04-24T02:07:49;2.40;;;1.27;;
21905;SDS011;11117;48.644;9.006;2023-04-24T02:10:15;2.13;;;0.97;;
21905;SDS011;11117;48.644;9.006;2023-04-24T02:12:40;2.37;;;0.90;;
21905;SDS011;11117;48.644;9.006;2023-04-24T02:15:06;4.30;;;1.20;;
21905;SDS011;11117;48.644;9.006;2023-04-24T02:17:32;1.33;;;0.90;;
21905;SDS011;11117;48.644;9.006;2023-04-24T02:19:57;2.17;;;1.03;;
21905;SDS011;11117;48.644;9.006;2023-04-24T02:22:23;5.00;;;0.93;;
21905;SDS011;11117;48.644;9.006;2023-04-24T02:24:48;2.17;;;0.80;;
21905;SDS011;11117;48.644;9.006;2023-04-24T02:27:14;4.47;;;1.10;;
21905;SDS011;11117;48.644;9.006;2023-04-24T02:29:41;3.83;;;0.93;;
21905;SDS011;11117;48.644;9.006;2023-04-24T02:32:07;0.70;;;0.70;;
21905;SDS011;11117;48.644;9.006;2023-04-24T02:34:32;6.30;;;1.20;;
21905;SDS011;11117;48.644;9.006;2023-04-24T02:36:58;3.97;;;1.30;;
21905;SDS011;11117;48.644;9.006;2023-04-24T02:39:23;4.00;;;1.00;;
21905;SDS011;11117;48.644;9.006;2023-04-24T02:41:49;1.43;;;1.00;;
21905;SDS011;11117;48.644;9.006;2023-04-24T02:44:14;2.30;;;0.87;;
21905;SDS011;11117;48.644;9.006;2023-04-24T02:46:40;2.87;;;1.07;;
21905;SDS011;11117;48.644;9.006;2023-04-24T02:49:05;1.40;;;0.80;;
21905;SDS011;11117;48.644;9.006;2023-04-24T02:51:31;2.77;;;1.00;;
21905;SDS011;11117;48.644;9.006;2023-04-24T02:53:56;1.43;;;1.10;;
21905;SDS011;11117;48.644;9.006;2023-04-24T02:56:22;2.33;;;0.93;;
21905;SDS011;11117;48.644;9.006;2023-04-24T02:58:47;1.00;;;0.90;;
21905;SDS011;11117;48.644;9.006;2023-04-24T03:01:13;3.50;;;0.90;;
21905;SDS011;11117;48.644;9.006;2023-04-24T03:03:39;2.17;;;0.97;;
21905;SDS011;11117;48.644;9.006;2023-04-24T03:06:04;2.07;;;0.90;;
21905;SDS011;11117;48.644;9.006;2023-04-24T03:08:30;1.13;;;0.90;;
21905;SDS011;11117;48.644;9.006;2023-04-24T03:10:56;2.53;;;0.90;;
21905;SDS011;11117;48.644;9.006;2023-04-24T03:13:21;2.40;;;1.00;;
21905;SDS011;11117;48.644;9.006;2023-04-24T03:15:47;2.57;;;1.20;;
21905;SDS011;11117;48.644;9.006;2023-04-24T03:18:12;2.67;;;1.30;;
21905;SDS011;11117;48.644;9.006;2023-04-24T03:20:38;4.53;;;1.17;;
21905;SDS011;11117;48.644;9.006;2023-04-24T03:23:03;3.00;;;1.00;;
21905;SDS011;11117;48.644;9.006;2023-04-24T03:25:29;2.53;;;1.03;;
21905;SDS011;11117;48.644;9.006;2023-04-24T03:27:54;2.57;;;1.10;;
21905;SDS011;11117;48.644;9.006;2023-04-24T03:30:20;1.47;;;0.77;;
21905;SDS011;11117;48.644;9.006;2023-04-24T03:32:46;1.23;;;0.97;;
21905;SDS011;11117;48.644;9.006;2023-04-24T03:35:11;1.50;;;1.00;;
21905;SDS011;11117;48.644;9.006;2023-04-24T03:37:37;2.00;;;0.70;;
21905;SDS011;11117;48.644;9.006;2023-04-24T03:40:02;1.80;;;0.80;;
21905;SDS011;11117;48.644;9.006;2023-04-24T03:42:28;2.53;;;1.23;;
21905;SDS011;11117;48.644;9.006;2023-04-24T03:44:54;3.33;;;1.10;;
21905;SDS011;11117;48.644;9.006;2023-04-24T03:47:19;4.40;;;0.83;;
21905;SDS011;11117;48.644;9.006;2023-04-24T03:49:45;3.00;;;0.80;;
21905;SDS011;11117;48.644;9.006;2023-04-24T03:52:11;2.30;;;0.80;;
21905;SDS011;11117;48.644;9.006;2023-04-24T03:54:36;1.70;;;0.97;;
21905;SDS011;11117;48.644;9.006;2023-04-24T03:57:02;2.40;;;0.80;;
21905;SDS011;11117;48.644;9.006;2023-04-24T03:59:27;3.20;;;0.77;;
21905;SDS011;11117;48.644;9.006;2023-04-24T04:01:53;2.23;;;0.60;;
21905;SDS011;11117;48.644;9.006;2023-04-24T04:04:18;3.03;;;0.70;;
21905;SDS011;11117;48.644;9.006;2023-04-24T04:06:44;2.20;;;0.77;;
21905;SDS011;11117;48.644;9.006;2023-04-24T04:09:10;1.00;;;0.60;;
21905;SDS011;11117;48.644;9.006;2023-04-24T04:11:35;1.17;;;0.70;;
21905;SDS011;11117;48.644;9.006;2023-04-24T04:14:01;1.80;;;0.70;;
21905;SDS011;11117;48.644;9.006;2023-04-24T04:16:28;3.07;;;0.70;;
21905;SDS011;11117;48.644;9.006;2023-04-24T04:18:53;1.80;;;0.70;;
21905;SDS011;11117;48.644;9.006;2023-04-24T04:21:19;1.47;;;0.80;;
21905;SDS011;11117;48.644;9.006;2023-04-24T04:23:45;3.17;;;0.87;;
21905;SDS011;11117;48.644;9.006;2023-04-24T04:26:11;2.40;;;0.60;;
21905;SDS011;11117;48.644;9.006;2023-04-24T04:28:36;1.47;;;0.70;;
21905;SDS011;11117;48.644;9.006;2023-04-24T04:31:02;2.60;;;0.90;;
21905;SDS011;11117;48.644;9.006;2023-04-24T04:33:27;3.60;;;0.77;;
21905;SDS011;11117;48.644;9.006;2023-04-24T04:35:53;1.60;;;0.73;;
21905;SDS011;11117;48.644;9.006;2023-04-24T04:38:18;3.07;;;0.90;;
21905;SDS011;11117;48.644;9.006;2023-04-24T04:40:44;2.55;;;1.10;;
21905;SDS011;11117;48.644;9.006;2023-04-24T04:43:10;1.40;;;1.10;;
21905;SDS011;11117;48.644;9.006;2023-04-24T04:45:37;3.37;;;1.43;;
21905;SDS011;11117;48.644;9.006;2023-04-24T04:48:02;2.90;;;1.47;;
21905;SDS011;11117;48.644;9.006;2023-04-24T04:50:28;2.07;;;1.23;;
21905;SDS011;11117;48.644;9.006;2023-04-24T04:52:53;3.03;;;1.40;;
21905;SDS011;11117;48.644;9.006;2023-04-24T04:55:19;2.00;;;1.40;;
21905;SDS011;11117;48.644;9.006;2023-04-24T04:57:45;3.27;;;1.70;;
21905;SDS011;11117;48.644;9.006;2023-04-24T05:00:11;2.83;;;1.37;;
21905;SDS011;11117;48.644;9.006;2023-04-24T05:02:37;5.07;;;1.53;;
21905;SDS011;11117;48.644;9.006;2023-04-24T05:05:03;3.80;;;1.50;;
21905;SDS011;11117;48.644;9.006;2023-04-24T05:07:29;3.00;;;1.50;;
21905;SDS011;11117;48.644;9.006;2023-04-24T05:09:54;2.17;;;1.50;;
21905;SDS011;11117;48.644;9.006;2023-04-24T05:12:20;1.53;;;1.43;;
21905;SDS011;11117;48.644;9.006;2023-04-24T05:14:46;3.83;;;1.50;;
21905;SDS011;11117;48.644;9.006;2023-04-24T05:17:12;2.63;;;1.70;;
21905;SDS011;11117;48.644;9.006;2023-04-24T05:19:37;2.67;;;1.83;;
21905;SDS011;11117;48.644;9.006;2023-04-24T05:22:03;3.93;;;1.80;;
21905;SDS011;11117;48.644;9.006;2023-04-24T05:24:28;2.83;;;2.13;;
21905;SDS011;11117;48.644;9.006;2023-04-24T05:26:54;2.27;;;1.80;;
21905;SDS011;11117;48.644;9.006;2023-04-24T05:29:19;3.13;;;1.87;;
21905;SDS011;11117;48.644;9.006;2023-04-24T05:31:45;3.03;;;1.80;;
21905;SDS011;11117;48.644;9.006;2023-04-24T05:34:10;2.00;;;1.73;;
21905;SDS011;11117;48.644;9.006;2023-04-24T05:36:36;1.60;;;1.50;;
21905;SDS011;11117;48.644;9.006;2023-04-24T05:39:01;2.90;;;1.80;;
21905;SDS011;11117;48.644;9.006;2023-04-24T05:41:27;5.13;;;2.10;;
21905;SDS011;11117;48.644;9.006;2023-04-24T05:43:52;2.13;;;1.80;;
21905;SDS011;11117;48.644;9.006;2023-04-24T05:46:18;2.30;;;1.90;;
21905;SDS011;11117;48.644;9.006;2023-04-24T05:48:43;5.90;;;1.97;;
21905;SDS011;11117;48.644;9.006;2023-04-24T05:51:09;2.50;;;2.00;;
21905;SDS011;11117;48.644;9.006;2023-04-24T05:53:34;5.83;;;2.13;;
21905;SDS011;11117;48.644;9.006;2023-04-24T05:56:00;3.40;;;2.00;;
21905;SDS011;11117;48.644;9.006;2023-04-24T05:58:25;5.10;;;2.30;;
21905;SDS011;11117;48.644;9.006;2023-04-24T06:00:51;2.70;;;2.00;;
21905;SDS011;11117;48.644;9.006;2023-04-24T06:03:16;1.90;;;1.77;;
21905;SDS011;11117;48.644;9.006;2023-04-24T06:05:42;2.83;;;2.03;;
21905;SDS011;11117;48.644;9.006;2023-04-24T06:08:11;4.23;;;2.03;;
21905;SDS011;11117;48.644;9.006;2023-04-24T06:10:40;2.30;;;2.10;;
21905;SDS011;11117;48.644;9.006;2023-04-24T06:13:06;3.20;;;2.23;;
21905;SDS011;11117;48.644;9.006;2023-04-24T06:15:31;3.20;;;2.40;;
21905;SDS011;11117;48.644;9.006;2023-04-24T06:17:58;3.03;;;2.00;;
21905;SDS011;11117;48.644;9.006;2023-04-24T06:20:24;3.13;;;1.80;;
21905;SDS011;11117;48.644;9.006;2023-04-24T06:22:50;3.10;;;2.10;;
21905;SDS011;11117;48.644;9.006;2023-04-24T06:25:15;2.73;;;1.80;;
21905;SDS011;11117;48.644;9.006;2023-04-24T06:27:41;3.53;;;2.03;;
21905;SDS011;11117;48.644;9.006;2023-04-24T06:30:07;3.67;;;1.90;;
21905;SDS011;11117;48.644;9.006;2023-04-24T06:32:33;3.40;;;2.00;;
21905;SDS011;11117;48.644;9.006;2023-04-24T06:34:58;2.47;;;1.70;;
21905;SDS011;11117;48.644;9.006;2023-04-24T06:37:24;3.23;;;2.00;;
21905;SDS011;11117;48.644;9.006;2023-04-24T06:39:49;2.43;;;1.57;;
21905;SDS011;11117;48.644;9.006;2023-04-24T06:42:15;4.87;;;1.50;;
21905;SDS011;11117;48.644;9.006;2023-04-24T06:44:42;6.37;;;1.70;;
21905;SDS011;11117;48.644;9.006;2023-04-24T06:47:08;2.07;;;1.57;;
21905;SDS011;11117;48.644;9.006;2023-04-24T06:49:35;2.07;;;1.70;;
21905;SDS011;11117;48.644;9.006;2023-04-24T06:52:04;5.77;;;1.80;;
21905;SDS011;11117;48.644;9.006;2023-04-24T06:54:30;2.47;;;1.63;;
21905;SDS011;11117;48.644;9.006;2023-04-24T06:56:56;2.87;;;1.87;;
21905;SDS011;11117;48.644;9.006;2023-04-24T06:59:22;3.37;;;1.83;;
21905;SDS011;11117;48.644;9.006;2023-04-24T07:01:48;3.70;;;1.80;;
21905;SDS011;11117;48.644;9.006;2023-04-24T07:04:14;1.97;;;1.37;;
21905;SDS011;11117;48.644;9.006;2023-04-24T07:06:40;4.30;;;1.73;;
21905;SDS011;11117;48.644;9.006;2023-04-24T07:09:05;1.63;;;1.30;;
21905;SDS011;11117;48.644;9.006;2023-04-24T07:11:31;3.43;;;0.90;;
21905;SDS011;11117;48.644;9.006;2023-04-24T07:13:56;1.93;;;1.10;;
21905;SDS011;11117;48.644;9.006;2023-04-24T07:16:22;1.57;;;1.20;;
21905;SDS011;11117;48.644;9.006;2023-04-24T07:18:47;1.83;;;1.47;;
21905;SDS011;11117;48.644;9.006;2023-04-24T07:21:13;1.77;;;1.30;;
21905;SDS011;11117;48.644;9.006;2023-04-24T07:23:39;2.10;;;1.10;;
21905;SDS011;11117;48.644;9.006;2023-04-24T07:26:04;1.20;;;1.10;;
21905;SDS011;11117;48.644;9.006;2023-04-24T07:28:30;1.57;;;1.33;;
21905;SDS011;11117;48.644;9.006;2023-04-24T07:30:55;2.03;;;1.10;;
21905;SDS011;11117;48.644;9.006;2023-04-24T07:33:21;3.77;;;1.20;;
21905;SDS011;11117;48.644;9.006;2023-04-24T07:35:46;2.20;;;1.30;;
21905;SDS011;11117;48.644;9.006;2023-04-24T07:38:12;1.40;;;1.20;;
21905;SDS011;11117;48.644;9.006;2023-04-24T07:40:38;2.43;;;1.30;;
21905;SDS011;11117;48.644;9.006;2023-04-24T07:43:03;3.20;;;1.60;;
21905;SDS011;11117;48.644;9.006;2023-04-24T07:45:29;2.40;;;1.67;;
21905;SDS011;11117;48.644;9.006;2023-04-24T07:47:55;4.20;;;1.50;;
21905;SDS011;11117;48.644;9.006;2023-04-24T07:50:21;2.77;;;1.70;;
21905;SDS011;11117;48.644;9.006;2023-04-24T07:52:47;4.30;;;1.70;;
21905;SDS011;11117;48.644;9.006;2023-04-24T07:55:13;1.50;;;1.40;;
21905;SDS011;11117;48.644;9.006;2023-04-24T07:57:39;4.03;;;1.60;;
21905;SDS011;11117;48.644;9.006;2023-04-24T08:00:05;2.10;;;1.60;;
21905;SDS011;11117;48.644;9.006;2023-04-24T08:02:31;3.03;;;1.63;;
21905;SDS011;11117;48.644;9.006;2023-04-24T08:04:57;4.30;;;1.60;;
21905;SDS011;11117;48.644;9.006;2023-04-24T08:07:23;2.57;;;1.80;;
21905;SDS011;11117;48.644;9.006;2023-04-24T08:09:48;2.33;;;1.47;;
21905;SDS011;11117;48.644;9.006;2023-04-24T08:12:14;1.70;;;1.50;;
21905;SDS011;11117;48.644;9.006;2023-04-24T08:14:41;4.10;;;1.50;;
21905;SDS011;11117;48.644;9.006;2023-04-24T08:17:07;2.67;;;1.40;;
21905;SDS011;11117;48.644;9.006;2023-04-24T08:19:32;1.43;;;1.23;;
21905;SDS011;11117;48.644;9.006;2023-04-24T08:21:58;2.73;;;1.70;;
21905;SDS011;11117;48.644;9.006;2023-04-24T08:24:23;3.43;;;1.50;;
21905;SDS011;11117;48.644;9.006;2023-04-24T08:26:49;2.73;;;1.50;;
21905;SDS011;11117;48.644;9.006;2023-04-24T08:29:15;1.87;;;1.40;;
21905;SDS011;11117;48.644;9.006;2023-04-24T08:31:40;2.50;;;1.70;;
21905;SDS011;11117;48.644;9.006;2023-04-24T08:34:06;3.83;;;1.50;;
21905;SDS011;11117;48.644;9.006;2023-04-24T08:36:32;4.07;;;1.50;;
21905;SDS011;11117;48.644;9.006;2023-04-24T08:38:57;2.67;;;1.40;;
21905;SDS011;11117;48.644;9.006;2023-04-24T08:41:23;4.90;;;1.70;;
21905;SDS011;11117;48.644;9.006;2023-04-24T08:43:48;3.07;;;1.40;;
21905;SDS011;11117;48.644;9.006;2023-04-24T08:46:16;6.00;;;1.80;;
21905;SDS011;11117;48.644;9.006;2023-04-24T08:48:41;3.80;;;1.73;;
21905;SDS011;11117;48.644;9.006;2023-04-24T08:51:08;2.73;;;1.70;;
21905;SDS011;11117;48.644;9.006;2023-04-24T08:53:34;4.53;;;1.50;;
21905;SDS011;11117;48.644;9.006;2023-04-24T08:56:00;3.00;;;1.53;;
21905;SDS011;11117;48.644;9.006;2023-04-24T08:58:27;2.80;;;1.70;;
21905;SDS011;11117;48.644;9.006;2023-04-24T09:00:56;4.47;;;1.80;;
21905;SDS011;11117;48.644;9.006;2023-04-24T09:03:23;3.40;;;1.53;;
21905;SDS011;11117;48.644;9.006;2023-04-24T09:05:49;2.53;;;1.90;;
21905;SDS011;11117;48.644;9.006;2023-04-24T09:08:16;2.43;;;1.40;;
21905;SDS011;11117;48.644;9.006;2023-04-24T09:10:43;3.33;;;1.40;;
21905;SDS011;11117;48.644;9.006;2023-04-24T09:13:09;2.90;;;1.70;;
21905;SDS011;11117;48.644;9.006;2023-04-24T09:15:39;3.47;;;1.60;;
21905;SDS011;11117;48.644;9.006;2023-04-24T09:18:06;3.23;;;1.53;;
21905;SDS011;11117;48.644;9.006;2023-04-24T09:20:31;1.63;;;1.30;;
21905;SDS011;11117;48.644;9.006;2023-04-24T09:22:58;2.43;;;1.23;;
21905;SDS011;11117;48.644;9.006;2023-04-24T09:25:33;2.57;;;1.20;;
21905;SDS011;11117;48.644;9.006;2023-04-24T09:28:00;6.20;;;1.77;;
21905;SDS011;11117;48.644;9.006;2023-04-24T09:30:29;3.00;;;1.60;;
21905;SDS011;11117;48.644;9.006;2023-04-24T09:33:12;2.67;;;1.47;;
21905;SDS011;11117;48.644;9.006;2023-04-24T09:35:42;2.27;;;1.10;;
21905;SDS011;11117;48.644;9.006;2023-04-24T09:38:13;2.57;;;1.67;;
21905;SDS011;11117;48.644;9.006;2023-04-24T09:40:38;4.83;;;1.30;;
21905;SDS011;11117;48.644;9.006;2023-04-24T09:43:04;2.90;;;1.10;;
21905;SDS011;11117;48.644;9.006;2023-04-24T09:45:36;2.07;;;1.10;;
21905;SDS011;11117;48.644;9.006;2023-04-24T09:48:02;1.73;;;0.90;;
21905;SDS011;11117;48.644;9.006;2023-04-24T09:50:29;0.90;;;0.83;;
21905;SDS011;11117;48.644;9.006;2023-04-24T09:52:57;7.90;;;1.20;;
21905;SDS011;11117;48.644;9.006;2023-04-24T09:55:23;2.50;;;0.80;;
21905;SDS011;11117;48.644;9.006;2023-04-24T09:57:49;1.43;;;0.73;;
21905;SDS011;11117;48.644;9.006;2023-04-24T10:00:22;3.10;;;1.10;;
21905;SDS011;11117;48.644;9.006;2023-04-24T10:03:01;1.73;;;1.00;;
21905;SDS011;11117;48.644;9.006;2023-04-24T10:05:29;1.83;;;1.03;;
21905;SDS011;11117;48.644;9.006;2023-04-24T10:07:57;1.17;;;1.07;;
21905;SDS011;11117;48.644;9.006;2023-04-24T10:10:27;2.47;;;0.97;;
21905;SDS011;11117;48.644;9.006;2023-04-24T10:12:53;1.83;;;1.10;;
21905;SDS011;11117;48.644;9.006;2023-04-24T10:15:20;3.20;;;1.10;;
21905;SDS011;11117;48.644;9.006;2023-04-24T10:17:48;1.20;;;0.70;;
21905;SDS011;11117;48.644;9.006;2023-04-24T10:20:15;2.03;;;1.00;;
21905;SDS011;11117;48.644;9.006;2023-04-24T10:22:40;3.50;;;1.07;;
21905;SDS011;11117;48.644;9.006;2023-04-24T10:25:06;2.10;;;1.00;;
21905;SDS011;11117;48.644;9.006;2023-04-24T10:27:33;2.10;;;0.80;;
21905;SDS011;11117;48.644;9.006;2023-04-24T10:30:00;3.10;;;1.00;;
21905;SDS011;11117;48.644;9.006;2023-04-24T10:32:27;2.07;;;1.30;;
21905;SDS011;11117;48.644;9.006;2023-04-24T10:34:52;2.43;;;1.10;;
21905;SDS011;11117;48.644;9.006;2023-04-24T10:37:19;2.57;;;1.00;;
21905;SDS011;11117;48.644;9.006;2023-04-24T10:39:47;2.30;;;1.20;;
21905;SDS011;11117;48.644;9.006;2023-04-24T10:42:14;1.07;;;0.87;;
21905;SDS011;11117;48.644;9.006;2023-04-24T10:44:42;3.57;;;1.10;;
21905;SDS011;11117;48.644;9.006;2023-04-24T10:47:14;2.20;;;1.13;;
21905;SDS011;11117;48.644;9.006;2023-04-24T10:49:40;2.27;;;1.13;;
21905;SDS011;11117;48.644;9.006;2023-04-24T10:52:06;1.80;;;1.07;;
21905;SDS011;11117;48.644;9.006;2023-04-24T10:59:51;2.03;;;0.90;;
21905;SDS011;11117;48.644;9.006;2023-04-24T11:02:38;1.43;;;1.10;;
21905;SDS011;11117;48.644;9.006;2023-04-24T11:05:05;4.87;;;1.43;;
21905;SDS011;11117;48.644;9.006;2023-04-24T11:08:09;2.27;;;1.53;;
21905;SDS011;11117;48.644;9.006;2023-04-24T11:10:38;3.03;;;1.20;;
21905;SDS011;11117;48.644;9.006;2023-04-24T11:13:04;3.37;;;1.10;;
21905;SDS011;11117;48.644;9.006;2023-04-24T11:15:29;3.03;;;1.50;;
21905;SDS011;11117;48.644;9.006;2023-04-24T11:17:55;1.90;;;1.37;;
21905;SDS011;11117;48.644;9.006;2023-04-24T11:20:22;1.67;;;1.07;;
21905;SDS011;11117;48.644;9.006;2023-04-24T11:22:48;1.37;;;1.00;;
21905;SDS011;11117;48.644;9.006;2023-04-24T11:25:18;2.20;;;0.90;;
21905;SDS011;11117;48.644;9.006;2023-04-24T11:27:44;2.70;;;1.27;;
21905;SDS011;11117;48.644;9.006;2023-04-24T11:30:10;1.30;;;0.80;;
21905;SDS011;11117;48.644;9.006;2023-04-24T11:32:40;2.00;;;1.10;;
21905;SDS011;11117;48.644;9.006;2023-04-24T11:37:40;1.33;;;0.90;;
21905;SDS011;11117;48.644;9.006;2023-04-24T11:40:17;2.90;;;1.20;;
21905;SDS011;11117;48.644;9.006;2023-04-24T11:42:44;1.27;;;1.00;;
21905;SDS011;11117;48.644;9.006;2023-04-24T11:45:12;1.30;;;1.20;;
21905;SDS011;11117;48.644;9.006;2023-04-24T11:47:46;2.10;;;1.00;;
21905;SDS011;11117;48.644;9.006;2023-04-24T11:50:13;1.30;;;1.20;;
21905;SDS011;11117;48.644;9.006;2023-04-24T11:52:44;2.13;;;1.23;;
21905;SDS011;11117;48.644;9.006;2023-04-24T11:57:43;1.87;;;1.30;;
21905;SDS011;11117;48.644;9.006;2023-04-24T12:02:51;1.70;;;1.40;;
21905;SDS011;11117;48.644;9.006;2023-04-24T12:05:27;1.93;;;1.40;;
21905;SDS011;11117;48.644;9.006;2023-04-24T12:07:53;1.87;;;1.47;;
21905;SDS011;11117;48.644;9.006;2023-04-24T12:10:20;2.33;;;1.50;;
21905;SDS011;11117;48.644;9.006;2023-04-24T12:12:47;2.07;;;1.60;;
21905;SDS011;11117;48.644;9.006;2023-04-24T12:15:12;2.97;;;1.30;;
21905;SDS011;11117;48.644;9.006;2023-04-24T12:17:41;3.53;;;1.30;;
21905;SDS011;11117;48.644;9.006;2023-04-24T12:20:07;1.97;;;1.37;;
21905;SDS011;11117;48.644;9.006;2023-04-24T12:25:19;7.87;;;2.13;;
21905;SDS011;11117;48.644;9.006;2023-04-24T12:27:46;4.53;;;1.57;;
21905;SDS011;11117;48.644;9.006;2023-04-24T12:30:18;3.80;;;1.40;;
21905;SDS011;11117;48.644;9.006;2023-04-24T12:32:45;2.10;;;1.30;;
21905;SDS011;11117;48.644;9.006;2023-04-24T12:35:21;2.27;;;1.10;;
21905;SDS011;11117;48.644;9.006;2023-04-24T12:37:48;1.73;;;1.20;;
21905;SDS011;11117;48.644;9.006;2023-04-24T12:40:14;2.23;;;1.30;;
21905;SDS011;11117;48.644;9.006;2023-04-24T12:42:47;1.87;;;1.20;;
21905;SDS011;11117;48.644;9.006;2023-04-24T12:45:14;1.53;;;1.10;;
21905;SDS011;11117;48.644;9.006;2023-04-24T12:47:41;3.70;;;1.20;;
21905;SDS011;11117;48.644;9.006;2023-04-24T12:50:08;2.27;;;1.20;;
21905;SDS011;11117;48.644;9.006;2023-04-24T12:52:36;1.80;;;1.00;;
21905;SDS011;11117;48.644;9.006;2023-04-24T12:55:01;3.33;;;1.30;;
21905;SDS011;11117;48.644;9.006;2023-04-24T12:57:28;3.07;;;1.50;;
21905;SDS011;11117;48.644;9.006;2023-04-24T12:59:55;2.20;;;1.30;;
21905;SDS011;11117;48.644;9.006;2023-04-24T13:02:23;1.97;;;1.30;;
21905;SDS011;11117;48.644;9.006;2023-04-24T13:04:50;2.27;;;1.33;;
21905;SDS011;11117;48.644;9.006;2023-04-24T13:07:16;2.83;;;1.53;;
21905;SDS011;11117;48.644;9.006;2023-04-24T13:09:48;2.97;;;1.53;;
21905;SDS011;11117;48.644;9.006;2023-04-24T13:12:14;1.87;;;1.50;;
21905;SDS011;11117;48.644;9.006;2023-04-24T13:14:45;2.47;;;1.70;;
21905;SDS011;11117;48.644;9.006;2023-04-24T13:17:11;1.90;;;1.63;;
21905;SDS011;11117;48.644;9.006;2023-04-24T13:19:37;2.63;;;1.77;;
21905;SDS011;11117;48.644;9.006;2023-04-24T13:22:04;2.20;;;1.80;;
21905;SDS011;11117;48.644;9.006;2023-04-24T13:24:30;3.97;;;1.93;;
21905;SDS011;11117;48.644;9.006;2023-04-24T13:26:56;2.83;;;2.07;;
21905;SDS011;11117;48.644;9.006;2023-04-24T13:29:22;5.47;;;1.80;;
21905;SDS011;11117;48.644;9.006;2023-04-24T13:31:49;2.77;;;1.90;;
21905;SDS011;11117;48.644;9.006;2023-04-24T13:34:15;3.70;;;2.00;;
21905;SDS011;11117;48.644;9.006;2023-04-24T13:36:41;3.17;;;1.90;;
21905;SDS011;11117;48.644;9.006;2023-04-24T13:39:07;3.03;;;1.90;;
21905;SDS011;11117;48.644;9.006;2023-04-24T13:41:33;2.13;;;1.93;;
21905;SDS011;11117;48.644;9.006;2023-04-24T13:43:58;3.73;;;2.10;;
21905;SDS011;11117;48.644;9.006;2023-04-24T13:46:24;3.83;;;2.00;;
21905;SDS011;11117;48.644;9.006;2023-04-24T13:48:50;5.37;;;2.07;;
21905;SDS011;11117;48.644;9.006;2023-04-24T13:51:15;5.47;;;2.30;;
21905;SDS011;11117;48.644;9.006;2023-04-24T13:53:41;4.93;;;2.40;;
21905;SDS011;11117;48.644;9.006;2023-04-24T13:56:07;4.03;;;1.93;;
21905;SDS011;11117;48.644;9.006;2023-04-24T13:58:32;2.87;;;1.70;;
21905;SDS011;11117;48.644;9.006;2023-04-24T14:00:58;4.17;;;2.20;;
21905;SDS011;11117;48.644;9.006;2023-04-24T14:03:24;5.17;;;2.17;;
21905;SDS011;11117;48.644;9.006;2023-04-24T14:05:49;2.60;;;1.70;;
21905;SDS011;11117;48.644;9.006;2023-04-24T14:08:15;3.60;;;2.20;;
21905;SDS011;11117;48.644;9.006;2023-04-24T14:10:40;4.93;;;2.30;;
21905;SDS011;11117;48.644;9.006;2023-04-24T14:13:07;3.00;;;2.70;;
21905;SDS011;11117;48.644;9.006;2023-04-24T14:15:33;3.63;;;2.60;;
21905;SDS011;11117;48.644;9.006;2023-04-24T14:18:00;2.93;;;2.00;;
21905;SDS011;11117;48.644;9.006;2023-04-24T14:20:26;3.80;;;1.90;;
21905;SDS011;11117;48.644;9.006;2023-04-24T14:22:51;4.17;;;1.97;;
21905;SDS011;11117;48.644;9.006;2023-04-24T14:25:17;3.23;;;2.20;;
21905;SDS011;11117;48.644;9.006;2023-04-24T14:27:42;3.30;;;1.97;;
21905;SDS011;11117;48.644;9.006;2023-04-24T14:30:08;4.83;;;2.20;;
21905;SDS011;11117;48.644;9.006;2023-04-24T14:32:34;2.03;;;1.83;;
21905;SDS011;11117;48.644;9.006;2023-04-24T14:34:59;2.87;;;1.87;;
21905;SDS011;11117;48.644;9.006;2023-04-24T14:37:25;3.40;;;2.40;;
21905;SDS011;11117;48.644;9.006;2023-04-24T14:39:50;3.63;;;2.23;;
21905;SDS011;11117;48.644;9.006;2023-04-24T14:42:16;3.53;;;2.10;;
21905;SDS011;11117;48.644;9.006;2023-04-24T14:44:45;2.73;;;1.77;;
21905;SDS011;11117;48.644;9.006;2023-04-24T14:47:11;3.80;;;1.97;;
21905;SDS011;11117;48.644;9.006;2023-04-24T14:49:36;2.20;;;1.70;;
21905;SDS011;11117;48.644;9.006;2023-04-24T14:52:02;4.00;;;1.90;;
21905;SDS011;11117;48.644;9.006;2023-04-24T14:54:28;1.93;;;1.57;;
21905;SDS011;11117;48.644;9.006;2023-04-24T14:56:54;2.63;;;1.97;;
21905;SDS011;11117;48.644;9.006;2023-04-24T14:59:19;2.90;;;1.80;;